Central Sierra Snow Lab Weather observations

Data are for 10 minute period ending at time listed.
 Day   Time    Incoming  Reflected   Ave.   Ave.    Ave.    Vector  Max.    Ave.    Total    Snow   
  of    of      Solar     Solar      Air    Rel.    Wind    Wind    Wind   Baro.   Precip.   Depth  
Year   Day     Radiation Radiation   Temp.  Humid.  Speed   Dir.    Gust   Press.                   
2019   (PST)    Kw/m2     Kw/m2       F       %      mph     deg.    mph     mb.     in.      in.   
----------------------------------------------------------------------------------------------------
 114    5:40    0.007     999.000     35.4     86     2.8      33     3.8   794.90   -2.96   99.60  
 114    5:50    0.009     999.000     35.8     84     4.1      30     4.8   794.90   -2.96   99.60  
 114    6:00    0.011     999.000     36.1     84     2.7      35     4.1   795.00   -2.96   99.60  
 114    6:10    0.013     999.000     36.5     84     3.0      34     4.2   795.10   -2.96   99.60  
 114    6:20    0.015     999.000     36.5     85     1.8      40     2.6   795.10   -2.96   99.60  
 114    6:30    0.018     999.000     37.4     85     1.7      44     1.9   795.10   -2.96   99.50  
 114    6:40    0.020     999.000     38.4     83     1.6      44     2.0   795.20   -2.96   99.50  
 114    6:50    0.041     999.000     39.4     81     1.7      40     2.2   795.20   -2.96   124.90  
 114    7:00    0.071     999.000     40.5     78     1.5      42     1.8   795.20   -2.96   164.70  
 114    7:10    0.305     999.000     42.6     75     1.7      40     2.2   795.20   -2.96   164.90  
 114    7:20    0.341     999.000     45.5     69     2.3      32     2.9   795.20   -2.96   164.90  
 114    7:30    0.375     999.000     47.9     64     2.1      33     2.6   795.20   -2.96   164.80  
 114    7:40    0.409     999.000     50.1     60     1.3      32     2.3   795.10   -2.96   164.80  
 114    7:50    0.442     999.000     51.4     58     0.8      25     2.2   795.00   -2.96   165.20  
 114    8:00    0.474     999.000     52.6     56     0.5     316     2.2   795.00   -2.96   149.50  
 114    8:10    0.505     999.000     55.3     51     0.1     182     1.0   795.00   -2.96   98.30  
 114    8:20    0.536     999.000     58.7     44     0.4     163     2.0   795.00   -2.96   98.30  
 114    8:30    0.567     999.000     61.9     38     0.7     185     2.5   795.00   -2.96   98.60  
 114    8:40    0.596     999.000     62.9     35     1.2     200     3.9   795.00   -2.96   98.90  
 114    8:50    0.624     999.000     62.0     38     1.4     199     2.7   795.00   -2.96   98.30  
 114    9:00    0.653     999.000     61.6     37     2.3     189     3.6   794.90   -2.96   98.50  
 114    9:10    0.679     999.000     62.7     35     1.1     234     3.9   794.90   -2.96   98.20  
 114    9:20    0.702     999.000     63.3     33     1.4     208     4.0   794.90   -2.96   97.90  
 114    9:30    0.726     999.000     62.7     33     2.1     202     4.3   794.90   -2.96   98.20  
 114    9:40    0.749     999.000     64.1     32     1.7     271     5.7   794.90   -2.96   98.30  
 114    9:50    0.770     999.000     64.1     32     1.5     199     4.1   795.00   -2.96   98.30  
 114   10:00    0.791     999.000     63.8     33     2.1     216     5.0   794.90   -2.96   98.50  
 114   10:10    0.810     999.000     63.6     33     2.6     198     6.4   795.00   -2.96   98.30  
 114   10:20    0.829     999.000     63.9     32     1.8     209     3.5   795.00   -2.96   98.20  
 114   10:30    0.846     999.000     64.3     31     2.3     225     4.5   795.00   -2.96   98.30  
 114   10:40    0.858     999.000     63.9     32     2.8     308     6.3   795.00   -2.96   98.10  
 114   10:50    0.872     999.000     64.6     31     2.1     348     6.3   795.00   -2.96   98.20  
 114   11:00    0.884     999.000     65.2     30     1.9     188     4.5   795.00   -2.96   98.00  
 114   11:10    0.893     999.000     65.3     30     2.0     229     4.7   794.90   -2.96   98.00  
 114   11:20    0.902     999.000     65.6     29     2.7     244     5.0   794.90   -2.96   97.80  
 114   11:30    0.909     999.000     65.6     28     3.0     257     7.0   794.90   -2.96   98.00  
 114   11:40    0.912     999.000     64.8     28     3.1     304     8.2   794.90   -2.96   97.90  
 114   11:50    0.915     999.000     65.3     29     2.6     280     6.8   794.80   -2.96   98.00  
 114   12:00    0.917     999.000     65.6     31     2.2     247     5.7   794.80   -2.96   97.60  
 114   12:10    0.915     999.000     65.5     31     2.5     255     6.1   794.80   -2.96   97.60  
 114   12:20    0.917     999.000     65.0     32     2.6     259     7.3   794.80   -2.96   97.80  
 114   12:30    0.917     999.000     64.8     33     3.1     243     7.5   794.80   -2.96   97.60  
 114   12:40    0.916     999.000     65.6     31     2.7     248     7.8   794.80   -2.96   97.30  
 114   12:50    0.913     999.000     65.4     30     2.2     253     6.1   794.70   -2.96   97.60  
 114   13:00    0.908     999.000     66.5     28     2.6     204     5.6   794.70   -2.96   97.30  
 114   13:10    0.899     999.000     66.1     28     2.3     259     5.9   794.70   -2.96   96.90  
 114   13:20    0.889     999.000     66.6     24     2.3     250     5.5   794.60   -2.96   97.10  
 114   13:30    0.885     999.000     65.7     26     3.1     288     9.7   794.60   -2.96   97.30  
 114   13:40    0.874     999.000     65.8     27     2.8     266     7.2   794.50   -2.96   97.20  
 114   13:50    0.850     999.000     65.3     31     3.4     284     9.6   794.40   -2.96   110.50  
 114   14:00    0.838     999.000     65.2     33     2.8     290     9.3   794.40   -2.96   132.40  
 114   14:10    0.827     999.000     66.1     33     2.2     300     6.0   794.40   -2.96   105.60  
 114   14:20    0.814     999.000     66.0     34     2.9     230     6.1   794.30   -2.96   127.50  
 114   14:30    0.779     999.000     64.9     35     2.8     219     9.2   794.20   -2.96   130.60  
 114   14:40    0.691     999.000     64.8     35     2.7     206     8.1   794.10   -2.96   157.50  
 114   14:50    0.678     999.000     65.0     35     2.5     256     6.1   794.10   -2.96   160.50  
 114   15:00    0.713     999.000     65.1     35     2.8     254    10.0   794.10   -2.96   164.30  
 114   15:10    0.690     999.000     65.2     36     2.8     198     5.8   794.10   -2.96   164.30  
 114   15:20    0.656     999.000     64.1     40     3.4     215     8.4   794.00   -2.96   164.40  
 114   15:30    0.553     999.000     64.5     39     2.8     249     8.6   794.00   -2.96   164.40  
 114   15:40    0.609     999.000     64.7     39     2.8     311     9.8   794.00   -2.96   164.40  
 114   15:50    0.528     999.000     64.0     41     3.6     284     8.6   794.00   -2.96   164.30  
 114   16:00    0.542     999.000     64.1     42     3.9     297     9.3   794.00   -2.96   164.40  
 114   16:10    0.513     999.000     63.7     43     3.5     269     8.3   794.00   -2.96   164.40  
 114   16:20    0.470     999.000     63.6     45     3.3     268     9.5   794.00   -2.96   164.40  
 114   16:30    0.350     999.000     62.7     48     3.6     252     7.9   794.00   -2.96   164.50  
 114   16:40    0.277     999.000     61.9     49     3.1     290     8.3   794.00   -2.96   164.50  
 114   16:50    0.207     999.000     62.3     48     3.2     288     9.5   794.10   -2.96   164.50  
 114   17:00    0.128     999.000     62.7     46     3.8     276     8.4   794.10   -2.96   164.50  
 114   17:10    0.068     999.000     62.4     46     2.5     283     7.5   794.10   -2.96   164.60  
 114   17:20    0.112     999.000     62.5     46     2.6     267     6.2   794.00   -2.96   164.60  
 114   17:30    0.090     999.000     61.1     47     1.8     230     6.4   794.00   -2.96   164.60  
 114   17:40    0.066     999.000     61.0     48     2.0     211     5.9   794.00   -2.96   164.60  
 114   17:50    0.114     999.000     60.5     48     2.0     230     6.7   793.90   -2.96   164.60  
 114   18:00    0.029     999.000     58.7     52     1.5     242     5.3   793.90   -2.96   164.60  
 114   18:10    0.019     999.000     56.7     55     1.0     337     4.8   794.00   -2.96   164.70  
 114   18:20    0.015     999.000     53.7     58     1.2      29     3.0   794.00   -2.96   164.80  
 114   18:30    0.011     999.000     50.1     61     3.6      25     4.9   794.00   -2.96   164.80  
 114   18:40    0.007     999.000     47.0     65     4.8      26     5.3   794.10   -2.96   164.90  
 114   18:50    0.004     999.000     45.0     68     4.8      26     5.4   794.20   -2.96   164.90  
 114   19:00    0.001     999.000     43.8     70     4.6      27     5.2   794.30   -2.96   164.90  
 114   19:10    0.000     999.000     42.6     72     4.1      24     5.1   794.30   -2.96   164.90  
 114   19:20    0.000     999.000     41.9     74     3.1      23     4.9   794.40   -2.96   164.90  
 114   19:30    0.000     999.000     40.9     75     3.3      24     4.6   794.50   -2.96   164.90  
 114   19:40    0.000     999.000     40.8     75     4.1      25     4.8   794.60   -2.96   164.80  
 114   19:50    0.000     999.000     40.4     75     4.0      26     4.5   794.70   -2.96   164.70  
 114   20:00    0.000     999.000     39.9     76     3.5      30     4.3   794.80   -2.96   164.80  
 114   20:10    0.000     999.000     39.5     77     3.0      34     4.0   794.90   -2.96   164.90  
 114   20:20    0.000     999.000     39.3     78     2.6      34     3.9   794.90   -2.96   164.90  
 114   20:30    0.000     999.000     38.9     78     1.9      40     2.8   795.00   -2.96   164.80  
 114   20:40    0.000     999.000     38.8     79     2.7      32     3.8   795.00   -2.96   146.90  
 114   20:50    0.000     999.000     38.7     79     2.3      32     3.5   795.00   -2.96   101.50  
 114   21:00    0.000     999.000     38.4     80     3.1      34     4.0   795.00   -2.96   100.30  
 114   21:10    0.000     999.000     38.1     81     2.8      34     3.9   795.00   -2.96   107.70  
 114   21:20    0.000     999.000     37.7     82     1.5      38     2.6   795.00   -2.96   98.50  
 114   21:30    0.000     999.000     37.6     83     1.9      36     2.5   794.90   -2.96   97.30  
 114   21:40    0.000     999.000     37.6     83     3.1      29     4.0   794.90   -2.96   97.20  
 114   21:50    0.000     999.000     37.5     83     3.3      30     4.1   794.80   -2.96   97.20  
 114   22:00    0.000     999.000     37.2     84     2.3      33     4.0   794.90   -2.96   97.30  
 114   22:10    0.000     999.000     37.1     84     3.8      31     4.4   794.90   -2.96   97.10  
 114   22:20    0.000     999.000     36.8     84     2.7      33     4.4   794.90   -2.96   97.20  
 114   22:30    0.000     999.000     36.5     84     1.8      36     2.3   794.90   -2.96   97.30  
 114   22:40    0.000     999.000     36.4     84     1.8      36     2.2   794.80   -2.96   97.20  
 114   22:50    0.000     999.000     36.2     85     1.8      39     2.9   794.80   -2.96   97.20  
 114   23:00    0.000     999.000     36.2     86     3.1      30     4.5   794.70   -2.96   97.20  
 114   23:10    0.000     999.000     36.2     84     3.5      31     4.2   794.70   -2.96   97.20  
 114   23:20    0.000     999.000     36.0     84     2.7      32     4.8   794.70   -2.96   97.20  
 114   23:30    0.000     999.000     35.9     83     4.6      29     5.0   794.70   -2.96   97.20  
 114   23:40    0.000     999.000     35.6     83     1.9      42     3.2   794.70   -2.96   97.30  
 114   23:50    0.000     999.000     35.5     84     2.2      37     3.4   794.70   -2.96   97.30  
 115    0:00    0.000     999.000     35.3     84     1.9      46     3.1   794.60   -2.96   97.30  
 115    0:10    0.000     999.000     35.2     84     2.2      38     3.0   794.60   -2.96   97.30  
 115    0:20    0.000     999.000     35.1     84     1.9      46     2.7   794.60   -2.96   97.40  
 115    0:30    0.000     999.000     35.0     84     1.8      39     2.2   794.50   -2.96   97.40  
 115    0:40    0.000     999.000     35.1     82     3.1      32     4.4   794.50   -2.96   97.40  
 115    0:50    0.000     999.000     34.9     82     1.9      43     4.2   794.40   -2.96   97.40  
 115    1:00    0.000     999.000     34.9     83     2.0      43     3.1   794.30   -2.96   97.40  
 115    1:10    0.000     999.000     34.9     82     1.6      42     1.8   794.30   -2.96   97.40  
 115    1:20    0.000     999.000     34.8     83     1.7      43     1.9   794.20   -2.96   97.40  
 115    1:30    0.000     999.000     34.7     83     1.7      44     2.1   794.20   -2.96   97.40  
 115    1:40    0.000     999.000     34.7     82     1.9      39     2.4   794.20   -2.96   97.40  
 115    1:50    0.000     999.000     34.6     83     1.8      40     2.6   794.10   -2.96   97.40  
 115    2:00    0.000     999.000     34.5     83     1.9      39     2.9   794.10   -2.96   97.40  
 115    2:10    0.000     999.000     34.5     82     2.2      33     3.4   794.10   -2.96   97.40  
 115    2:20    0.000     999.000     34.5     82     2.0      36     3.1   794.20   -2.96   97.30  
 115    2:30    0.000     999.000     34.6     81     3.5      30     5.0   794.20   -2.96   97.30  
 115    2:40    0.000     999.000     34.4     82     1.6      35     1.9   794.20   -2.96   97.40  
 115    2:50    0.000     999.000     34.3     82     2.0      34     2.9   794.20   -2.96   97.30  
 115    3:00    0.000     999.000     34.3     82     2.8      33     4.2   794.20   -2.96   97.30  
 115    3:10    0.000     999.000     34.2     82     2.7      32     3.4   794.10   -2.96   97.30  
 115    3:20    0.000     999.000     34.2     82     3.3      31     4.0   794.10   -2.96   97.20  
 115    3:30    0.000     999.000     34.2     82     2.9      32     3.9   794.00   -2.96   97.20  
 115    3:40    0.000     999.000     34.2     81     3.3      33     4.3   794.00   -2.96   97.20  
 115    3:50    0.000     999.000     34.0     81     2.9      33     4.3   794.00   -2.96   97.20  
 115    4:00    0.000     999.000     33.9     82     2.0      38     2.7   794.00   -2.96   97.20  
 115    4:10    0.000     999.000     33.8     82     2.2      39     2.9   794.00   -2.96   97.20  
 115    4:20    0.000     999.000     33.9     82     2.3      37     3.8   793.90   -2.96   97.20  
 115    4:30    0.000     999.000     33.8     82     2.4      37     3.7   793.90   -2.96   97.20  
 115    4:40    0.000     999.000     33.8     82     2.0      36     3.3   793.90   -2.96   97.20  
 115    4:50    0.000     999.000     33.8     82     3.3      32     4.1   793.90   -2.96   97.20  
 115    5:00    0.000     999.000     33.8     82     2.6      35     3.6   793.90   -2.96   97.20  
 115    5:10    0.001     999.000     33.8     82     1.6      40     2.2   793.90   -2.96   97.20  
 115    5:20    0.003     999.000     33.7     83     2.2      35     3.1   794.00   -2.96   97.20  
 115    5:30    0.006     999.000     33.8     82     2.3      37     3.5   794.00   -2.96   97.20  

Return to Central Sierra Snow Lab graphs page.


Western Regional Climate Center,wrcc@dri.edu